Time;durP1;ratioP1;P1;durP2;ratioP2;P2;SDS_P1;SDS_P2;PMS_P1;PMS_P2;Temp;Humidity;BMP_temperature;BMP_pressure;BME280_temperature;BME280_humidity;BME280_pressure;Samples;Min_cycle;Max_cycle;Signal;HPM_P1;HPM_P2
2022/10/12 00:00:26;;;;;;;2.70;1.80;;;;;;;;;;4998485;28;20232;-80
2022/10/12 00:02:52;;;;;;;4.63;1.80;;;;;;;;;;4998081;28;20205;-80
2022/10/12 00:05:18;;;;;;;5.83;2.07;;;;;;;;;;4998167;28;20199;-80
2022/10/12 00:07:44;;;;;;;5.17;2.00;;;;;;;;;;4998248;28;20179;-80
2022/10/12 00:10:09;;;;;;;3.53;1.83;;;;;;;;;;4997837;28;20205;-80
2022/10/12 00:12:35;;;;;;;2.57;1.90;;;;;;;;;;4997823;28;20552;-80
2022/10/12 00:15:01;;;;;;;4.57;2.20;;;;;;;;;;4997607;28;20289;-80
2022/10/12 00:17:27;;;;;;;2.67;2.10;;;;;;;;;;4999032;28;20174;-80
2022/10/12 00:19:53;;;;;;;5.57;2.00;;;;;;;;;;4998133;28;20189;-80
2022/10/12 00:22:20;;;;;;;6.00;2.13;;;;;;;;;;4997449;28;20186;-80
2022/10/12 00:24:46;;;;;;;3.80;2.20;;;;;;;;;;4998325;28;20193;-80
2022/10/12 00:27:12;;;;;;;3.80;2.20;;;;;;;;;;4998108;28;20581;-80
2022/10/12 00:29:38;;;;;;;4.17;2.00;;;;;;;;;;4997583;28;20240;-80
2022/10/12 00:32:04;;;;;;;3.23;2.03;;;;;;;;;;4997945;28;20211;-80
2022/10/12 00:34:30;;;;;;;4.43;2.40;;;;;;;;;;4998734;28;20186;-80
2022/10/12 00:36:56;;;;;;;3.33;2.03;;;;;;;;;;4998351;28;20201;-80
2022/10/12 00:39:22;;;;;;;2.93;1.97;;;;;;;;;;4998021;28;20193;-80
2022/10/12 00:41:48;;;;;;;3.97;2.23;;;;;;;;;;4998054;28;20641;-80
2022/10/12 00:44:33;;;;;;;3.90;1.80;;;;;;;;;;4998140;28;20210;-80
2022/10/12 00:47:00;;;;;;;3.97;1.80;;;;;;;;;;4997881;28;20238;-80
2022/10/12 00:49:27;;;;;;;4.10;2.10;;;;;;;;;;4997816;28;20187;-80
2022/10/12 00:51:56;;;;;;;3.10;2.30;;;;;;;;;;4998373;28;20215;-80
2022/10/12 00:54:26;;;;;;;4.23;2.00;;;;;;;;;;4998168;28;20182;-80
2022/10/12 00:56:53;;;;;;;2.60;1.80;;;;;;;;;;4998664;28;20203;-80
2022/10/12 00:59:21;;;;;;;2.87;2.07;;;;;;;;;;4998923;28;20193;-79
2022/10/12 01:01:47;;;;;;;3.90;2.10;;;;;;;;;;4998694;28;20178;-80
2022/10/12 01:04:13;;;;;;;3.77;2.27;;;;;;;;;;4999093;28;20182;-80
2022/10/12 01:06:39;;;;;;;3.53;1.97;;;;;;;;;;4998514;28;20211;-79
2022/10/12 01:09:05;;;;;;;6.03;2.40;;;;;;;;;;4999016;28;20205;-79
2022/10/12 01:11:31;;;;;;;4.20;2.10;;;;;;;;;;4998269;28;20201;-80
2022/10/12 01:13:57;;;;;;;4.47;2.10;;;;;;;;;;4999216;28;20186;-79
2022/10/12 01:16:35;;;;;;;3.40;2.23;;;;;;;;;;4998174;28;20208;-79
2022/10/12 01:19:09;;;;;;;3.67;2.40;;;;;;;;;;4998166;28;20297;-79
2022/10/12 01:21:39;;;;;;;4.27;2.17;;;;;;;;;;4998313;28;20184;-79
2022/10/12 01:24:05;;;;;;;3.70;2.10;;;;;;;;;;4998965;28;20187;-79
2022/10/12 01:26:50;;;;;;;3.07;2.00;;;;;;;;;;4998597;28;20308;-79
2022/10/12 01:29:33;;;;;;;6.30;2.33;;;;;;;;;;4998974;28;20174;-79
2022/10/12 01:32:06;;;;;;;3.33;2.00;;;;;;;;;;4998606;28;20208;-79
2022/10/12 01:34:46;;;;;;;4.37;2.03;;;;;;;;;;4999002;28;20193;-79
2022/10/12 01:37:15;;;;;;;4.07;2.33;;;;;;;;;;4998763;28;20672;-79
2022/10/12 01:39:45;;;;;;;4.87;2.20;;;;;;;;;;5000083;28;20180;-79
2022/10/12 01:42:15;;;;;;;4.33;2.27;;;;;;;;;;4999469;28;20186;-79
2022/10/12 01:44:41;;;;;;;3.17;2.27;;;;;;;;;;4999955;28;20193;-79
2022/10/12 01:47:07;;;;;;;4.20;2.40;;;;;;;;;;4999455;28;20240;-79
2022/10/12 01:49:34;;;;;;;4.07;2.33;;;;;;;;;;4999685;28;20259;-79
2022/10/12 01:52:09;;;;;;;3.53;2.20;;;;;;;;;;4999443;28;20210;-79
2022/10/12 01:54:56;;;;;;;3.27;2.20;;;;;;;;;;4999140;28;20176;-79
2022/10/12 01:57:40;;;;;;;3.67;2.20;;;;;;;;;;4998914;28;20224;-79
2022/10/12 02:00:11;;;;;;;6.77;2.30;;;;;;;;;;4999262;28;20539;-79
2022/10/12 02:02:50;;;;;;;6.03;2.40;;;;;;;;;;4998810;28;20185;-79
2022/10/12 02:05:34;;;;;;;5.23;2.30;;;;;;;;;;4999656;28;20691;-79
2022/10/12 02:08:09;;;;;;;4.23;2.20;;;;;;;;;;5000094;28;20193;-79
2022/10/12 02:10:37;;;;;;;7.07;2.50;;;;;;;;;;4999475;28;20291;-79
2022/10/12 02:13:06;;;;;;;3.37;1.90;;;;;;;;;;4999818;28;20180;-79
2022/10/12 02:15:32;;;;;;;3.23;2.20;;;;;;;;;;4999761;28;20195;-79
2022/10/12 02:18:01;;;;;;;5.70;2.40;;;;;;;;;;4999694;28;20244;-79
2022/10/12 02:20:27;;;;;;;3.63;2.40;;;;;;;;;;5000096;28;20177;-79
2022/10/12 02:22:54;;;;;;;5.03;2.40;;;;;;;;;;5000075;28;20176;-79
2022/10/12 02:25:22;;;;;;;5.53;2.50;;;;;;;;;;5000441;28;20221;-79
2022/10/12 02:27:51;;;;;;;4.00;2.17;;;;;;;;;;5000260;28;20272;-79
2022/10/12 02:30:17;;;;;;;4.07;2.10;;;;;;;;;;5000399;28;20187;-79
2022/10/12 02:32:49;;;;;;;6.87;2.70;;;;;;;;;;5000162;28;20222;-79
2022/10/12 02:35:21;;;;;;;5.03;2.50;;;;;;;;;;5001059;28;20196;-79
2022/10/12 02:37:55;;;;;;;5.13;2.47;;;;;;;;;;5000532;28;20547;-79
2022/10/12 02:40:25;;;;;;;3.60;2.53;;;;;;;;;;5000245;28;20283;-79
2022/10/12 02:42:54;;;;;;;5.53;2.47;;;;;;;;;;4999842;28;20249;-79
2022/10/12 02:45:21;;;;;;;5.30;3.10;;;;;;;;;;5000010;28;20204;-79
2022/10/12 02:47:47;;;;;;;3.13;2.40;;;;;;;;;;5000302;28;20176;-79
2022/10/12 02:50:15;;;;;;;6.37;2.47;;;;;;;;;;5000445;28;20173;-79
2022/10/12 02:52:41;;;;;;;5.53;2.67;;;;;;;;;;5000159;28;20194;-79
2022/10/12 02:55:07;;;;;;;3.93;2.57;;;;;;;;;;5000455;28;20180;-79
2022/10/12 02:57:33;;;;;;;4.53;2.70;;;;;;;;;;5000723;28;20208;-79
2022/10/12 02:59:59;;;;;;;4.20;2.80;;;;;;;;;;5000130;28;20187;-79
2022/10/12 03:02:25;;;;;;;7.90;2.93;;;;;;;;;;5000159;28;20181;-79
2022/10/12 03:04:51;;;;;;;3.00;2.40;;;;;;;;;;5000934;28;20190;-79
2022/10/12 03:07:17;;;;;;;4.17;2.50;;;;;;;;;;5000416;28;20199;-79
2022/10/12 03:09:43;;;;;;;3.53;2.33;;;;;;;;;;5000707;28;20187;-79
2022/10/12 03:12:09;;;;;;;3.60;2.40;;;;;;;;;;5002439;28;20204;-79
2022/10/12 03:14:36;;;;;;;4.47;2.47;;;;;;;;;;5003826;28;20180;-79
2022/10/12 03:17:02;;;;;;;3.63;2.63;;;;;;;;;;5003606;28;20238;-79
2022/10/12 03:19:28;;;;;;;4.80;2.73;;;;;;;;;;5004351;28;20572;-79
2022/10/12 03:21:54;;;;;;;5.37;2.67;;;;;;;;;;5003847;28;20192;-79
2022/10/12 03:24:20;;;;;;;5.90;2.50;;;;;;;;;;5003939;28;20190;-79
2022/10/12 03:26:46;;;;;;;4.33;2.73;;;;;;;;;;5004234;28;20219;-79
2022/10/12 03:29:12;;;;;;;6.27;3.00;;;;;;;;;;5003341;28;20184;-79
2022/10/12 03:31:38;;;;;;;8.80;3.03;;;;;;;;;;5003332;28;20211;-79
2022/10/12 03:34:04;;;;;;;4.00;2.60;;;;;;;;;;5004123;28;20252;-79
2022/10/12 03:36:31;;;;;;;3.57;2.60;;;;;;;;;;5003740;28;20195;-79
2022/10/12 03:38:57;;;;;;;5.27;2.60;;;;;;;;;;5003933;28;20172;-79
2022/10/12 03:41:23;;;;;;;5.30;2.80;;;;;;;;;;5003947;28;20210;-79
2022/10/12 03:43:49;;;;;;;7.23;3.10;;;;;;;;;;5003848;28;20259;-79
2022/10/12 03:46:15;;;;;;;6.73;2.87;;;;;;;;;;5003945;28;20210;-79
2022/10/12 03:48:41;;;;;;;6.37;3.27;;;;;;;;;;5004020;28;20187;-79
2022/10/12 03:51:07;;;;;;;7.13;3.57;;;;;;;;;;5003296;28;20203;-79
2022/10/12 03:53:33;;;;;;;11.23;3.93;;;;;;;;;;5003448;28;20247;-79
2022/10/12 03:56:00;;;;;;;6.87;3.63;;;;;;;;;;5004728;28;20203;-79
2022/10/12 03:58:26;;;;;;;7.10;3.40;;;;;;;;;;5003461;28;20176;-79
2022/10/12 04:00:55;;;;;;;4.60;3.20;;;;;;;;;;5003809;28;20266;-79
2022/10/12 04:03:21;;;;;;;9.03;3.57;;;;;;;;;;5003498;28;20245;-79
2022/10/12 04:05:54;;;;;;;8.33;3.53;;;;;;;;;;5004240;28;20204;-79
2022/10/12 04:08:20;;;;;;;7.03;3.73;;;;;;;;;;5004317;28;20180;-79
2022/10/12 04:10:46;;;;;;;7.47;3.47;;;;;;;;;;5002942;28;20264;-79
2022/10/12 04:13:12;;;;;;;5.60;3.23;;;;;;;;;;5002420;28;20179;-79
2022/10/12 04:15:38;;;;;;;5.23;3.13;;;;;;;;;;5002656;28;20269;-79
2022/10/12 04:18:04;;;;;;;5.40;3.37;;;;;;;;;;5002137;28;20183;-79
2022/10/12 04:20:30;;;;;;;4.97;3.10;;;;;;;;;;5003027;28;20234;-79
2022/10/12 04:22:56;;;;;;;6.23;3.53;;;;;;;;;;5002058;28;20199;-79
2022/10/12 04:25:22;;;;;;;6.63;3.30;;;;;;;;;;5001473;28;20204;-79
2022/10/12 04:27:48;;;;;;;10.50;3.80;;;;;;;;;;5003099;28;20183;-79
2022/10/12 04:30:14;;;;;;;10.67;3.77;;;;;;;;;;5003276;28;20175;-79
2022/10/12 04:32:40;;;;;;;5.97;3.47;;;;;;;;;;5003260;28;20250;-79
2022/10/12 04:35:06;;;;;;;5.60;3.57;;;;;;;;;;5002798;28;20183;-79
2022/10/12 04:37:32;;;;;;;6.70;3.20;;;;;;;;;;5003929;28;20182;-79
2022/10/12 04:39:58;;;;;;;5.70;3.10;;;;;;;;;;5002360;28;20207;-79
2022/10/12 04:42:24;;;;;;;6.67;3.60;;;;;;;;;;5005112;28;20179;-78
2022/10/12 04:44:50;;;;;;;4.50;3.20;;;;;;;;;;5005204;28;20211;-78
2022/10/12 04:47:16;;;;;;;4.90;3.07;;;;;;;;;;5004314;28;20196;-79
2022/10/12 04:49:42;;;;;;;5.20;2.90;;;;;;;;;;5002194;28;20209;-79
2022/10/12 04:52:08;;;;;;;4.87;3.03;;;;;;;;;;4998906;28;20199;-79
2022/10/12 04:54:34;;;;;;;5.00;3.27;;;;;;;;;;5001771;28;20211;-79
2022/10/12 04:57:00;;;;;;;4.47;3.17;;;;;;;;;;5001535;28;20199;-79
2022/10/12 04:59:26;;;;;;;5.67;3.67;;;;;;;;;;5002506;28;20175;-79
2022/10/12 05:01:53;;;;;;;6.80;3.50;;;;;;;;;;5001664;28;20195;-79
2022/10/12 05:04:19;;;;;;;4.17;3.20;;;;;;;;;;5001286;28;20556;-79
2022/10/12 05:06:45;;;;;;;5.57;3.07;;;;;;;;;;5001341;28;20577;-79
2022/10/12 05:09:11;;;;;;;6.97;3.00;;;;;;;;;;4995188;28;20193;-77
2022/10/12 05:11:37;;;;;;;11.93;3.37;;;;;;;;;;4995152;28;20207;-77
2022/10/12 05:14:03;;;;;;;11.47;3.40;;;;;;;;;;4995318;28;20218;-77
2022/10/12 05:16:55;;;;;;;6.60;3.43;;;;;;;;;;4996415;28;20203;-78
2022/10/12 05:19:21;;;;;;;8.90;3.87;;;;;;;;;;4995045;28;20222;-77
2022/10/12 05:21:47;;;;;;;4.63;3.07;;;;;;;;;;4994003;28;20278;-77
2022/10/12 05:24:13;;;;;;;9.23;3.20;;;;;;;;;;4994338;28;20274;-77
2022/10/12 05:26:39;;;;;;;6.07;3.27;;;;;;;;;;4994605;28;20223;-77
2022/10/12 05:29:05;;;;;;;4.70;3.10;;;;;;;;;;4995094;28;20176;-77
2022/10/12 05:31:31;;;;;;;6.30;3.20;;;;;;;;;;4994435;28;20203;-77
2022/10/12 05:33:57;;;;;;;5.63;3.50;;;;;;;;;;4994510;28;20572;-77
2022/10/12 05:36:23;;;;;;;5.67;3.27;;;;;;;;;;4995683;28;20243;-79
2022/10/12 05:38:49;;;;;;;4.87;3.13;;;;;;;;;;4995167;28;20266;-80
2022/10/12 05:41:15;;;;;;;9.17;3.50;;;;;;;;;;4996023;28;20188;-81
2022/10/12 05:43:41;;;;;;;9.20;3.40;;;;;;;;;;4998476;28;20180;-79
2022/10/12 05:46:07;;;;;;;10.20;2.93;;;;;;;;;;4997168;28;20207;-79
2022/10/12 05:48:33;;;;;;;5.77;3.23;;;;;;;;;;4996396;28;20250;-79
2022/10/12 05:50:59;;;;;;;4.37;2.90;;;;;;;;;;4994443;28;20208;-80
2022/10/12 05:53:25;;;;;;;4.03;3.20;;;;;;;;;;4996014;28;20545;-79
2022/10/12 05:55:52;;;;;;;4.70;3.20;;;;;;;;;;4996696;28;20205;-80
2022/10/12 05:58:18;;;;;;;3.80;2.70;;;;;;;;;;4995784;28;20167;-78
2022/10/12 06:00:44;;;;;;;4.07;3.10;;;;;;;;;;4993889;28;20270;-79
2022/10/12 06:03:10;;;;;;;3.90;3.27;;;;;;;;;;4994036;28;20674;-81
2022/10/12 06:05:36;;;;;;;4.47;2.93;;;;;;;;;;4993363;28;20208;-80
2022/10/12 06:08:02;;;;;;;4.70;3.13;;;;;;;;;;4994572;28;20331;-79
2022/10/12 06:10:28;;;;;;;3.63;2.40;;;;;;;;;;4995688;28;20592;-78
2022/10/12 06:12:55;;;;;;;5.57;3.37;;;;;;;;;;4995095;28;20764;-78
2022/10/12 06:15:21;;;;;;;5.67;3.13;;;;;;;;;;4994579;28;20819;-78
2022/10/12 06:17:52;;;;;;;5.00;3.33;;;;;;;;;;4994826;28;20180;-78
2022/10/12 06:20:18;;;;;;;3.97;3.20;;;;;;;;;;4994264;28;20619;-78
2022/10/12 06:22:44;;;;;;;3.60;3.00;;;;;;;;;;4994297;28;20186;-78
2022/10/12 06:25:10;;;;;;;10.43;3.53;;;;;;;;;;4994237;28;20188;-78
2022/10/12 06:27:36;;;;;;;9.50;3.20;;;;;;;;;;4994461;28;20172;-78
2022/10/12 06:30:02;;;;;;;4.03;3.20;;;;;;;;;;4994514;28;20230;-78
2022/10/12 06:32:28;;;;;;;5.50;3.23;;;;;;;;;;4994713;28;20208;-78
2022/10/12 06:34:54;;;;;;;3.53;3.00;;;;;;;;;;4994878;28;20189;-78
2022/10/12 06:37:20;;;;;;;7.23;3.70;;;;;;;;;;4994587;28;20180;-79
2022/10/12 06:39:46;;;;;;;10.97;4.30;;;;;;;;;;4994764;28;20172;-79
2022/10/12 06:42:12;;;;;;;6.97;3.23;;;;;;;;;;4995059;28;20187;-78
2022/10/12 06:44:38;;;;;;;6.30;3.37;;;;;;;;;;4993958;28;20182;-78
2022/10/12 06:47:04;;;;;;;5.73;3.40;;;;;;;;;;4992527;28;20204;-78
2022/10/12 06:49:30;;;;;;;4.97;3.00;;;;;;;;;;4995884;28;20176;-79
2022/10/12 06:51:56;;;;;;;3.90;3.47;;;;;;;;;;5000522;28;20212;-79
2022/10/12 06:54:22;;;;;;;4.63;3.10;;;;;;;;;;4999493;28;20176;-78
2022/10/12 06:56:48;;;;;;;4.97;3.00;;;;;;;;;;4995379;28;20200;-80
2022/10/12 06:59:14;;;;;;;5.67;3.70;;;;;;;;;;4992905;28;20183;-79
2022/10/12 07:01:40;;;;;;;8.70;3.50;;;;;;;;;;4992235;28;20712;-79
2022/10/12 07:04:06;;;;;;;7.47;3.17;;;;;;;;;;4992790;28;20184;-79
2022/10/12 07:06:32;;;;;;;5.33;3.07;;;;;;;;;;4993188;28;20267;-78
2022/10/12 07:08:58;;;;;;;4.47;3.30;;;;;;;;;;4992646;28;20189;-78
2022/10/12 07:11:24;;;;;;;4.87;3.03;;;;;;;;;;4992859;28;20690;-78
2022/10/12 07:13:50;;;;;;;6.00;3.40;;;;;;;;;;4992782;28;20182;-79
2022/10/12 07:16:40;;;;;;;9.37;6.27;;;;;;;;;;4992411;28;20206;-79
2022/10/12 07:19:06;;;;;;;7.67;3.53;;;;;;;;;;4992473;28;20174;-79
2022/10/12 07:21:32;;;;;;;5.27;3.97;;;;;;;;;;4992355;28;20274;-80
2022/10/12 07:23:58;;;;;;;3.30;3.00;;;;;;;;;;4993056;28;20669;-79
2022/10/12 07:26:24;;;;;;;4.17;2.90;;;;;;;;;;4992615;28;20227;-79
2022/10/12 07:28:50;;;;;;;3.13;2.70;;;;;;;;;;4992750;28;20180;-79
2022/10/12 07:31:16;;;;;;;3.23;2.80;;;;;;;;;;4992766;28;20215;-79
2022/10/12 07:33:42;;;;;;;7.03;4.20;;;;;;;;;;4992788;28;20187;-79
2022/10/12 07:36:08;;;;;;;5.63;4.03;;;;;;;;;;4992966;28;20283;-79
2022/10/12 07:38:34;;;;;;;4.97;3.73;;;;;;;;;;4992689;28;20171;-80
2022/10/12 07:41:01;;;;;;;4.63;3.07;;;;;;;;;;4992396;28;20267;-80
2022/10/12 07:43:28;;;;;;;8.77;4.83;;;;;;;;;;4992524;28;20212;-79
2022/10/12 07:45:54;;;;;;;9.13;5.37;;;;;;;;;;4992810;28;20205;-79
2022/10/12 07:48:20;;;;;;;5.77;4.47;;;;;;;;;;4992124;28;20693;-79
2022/10/12 07:50:46;;;;;;;5.00;4.10;;;;;;;;;;4992638;28;20240;-80
2022/10/12 07:53:12;;;;;;;6.43;4.00;;;;;;;;;;4992215;28;20214;-80
2022/10/12 07:55:38;;;;;;;6.23;3.87;;;;;;;;;;4992429;28;20206;-79
2022/10/12 07:58:04;;;;;;;8.20;5.30;;;;;;;;;;4994710;28;20186;-79
2022/10/12 08:00:31;;;;;;;5.17;4.50;;;;;;;;;;4996826;28;20535;-80
2022/10/12 08:02:57;;;;;;;7.60;4.70;;;;;;;;;;4995455;28;20239;-79
2022/10/12 08:05:23;;;;;;;7.00;5.07;;;;;;;;;;4995628;28;20195;-80
2022/10/12 08:07:50;;;;;;;6.27;4.50;;;;;;;;;;4995826;28;20616;-80
2022/10/12 08:10:16;;;;;;;5.13;4.00;;;;;;;;;;4995688;28;20178;-80
2022/10/12 08:12:42;;;;;;;4.37;3.90;;;;;;;;;;4994794;28;20216;-80
2022/10/12 08:15:08;;;;;;;5.13;4.40;;;;;;;;;;4995177;28;20184;-80
2022/10/12 08:17:41;;;;;;;8.03;4.77;;;;;;;;;;4995207;28;20208;-80
2022/10/12 08:20:08;;;;;;;5.30;4.33;;;;;;;;;;4995257;28;20240;-80
2022/10/12 08:22:34;;;;;;;6.63;4.70;;;;;;;;;;4994919;28;20196;-80
2022/10/12 08:25:00;;;;;;;4.93;4.20;;;;;;;;;;4994751;28;20184;-80
2022/10/12 08:27:29;;;;;;;6.77;4.57;;;;;;;;;;4994926;28;20191;-81
2022/10/12 08:29:55;;;;;;;6.77;4.40;;;;;;;;;;4995047;28;20187;-80
2022/10/12 08:32:21;;;;;;;5.70;4.37;;;;;;;;;;4994745;28;20204;-80
2022/10/12 08:34:47;;;;;;;5.27;4.47;;;;;;;;;;4994941;28;20176;-80
2022/10/12 08:37:13;;;;;;;5.00;4.00;;;;;;;;;;4994560;28;20578;-80
2022/10/12 08:39:39;;;;;;;6.30;4.40;;;;;;;;;;4994958;28;20255;-80
2022/10/12 08:42:28;;;;;;;7.33;5.27;;;;;;;;;;4994519;28;20687;-80
2022/10/12 08:45:06;;;;;;;7.47;5.00;;;;;;;;;;4989176;28;20268;-80
2022/10/12 08:47:37;;;;;;;5.47;4.03;;;;;;;;;;4994553;28;20178;-80
2022/10/12 08:50:04;;;;;;;4.57;3.57;;;;;;;;;;4994510;28;20166;-80
2022/10/12 08:52:32;;;;;;;3.70;3.30;;;;;;;;;;4994208;28;20285;-80
2022/10/12 08:55:01;;;;;;;4.67;3.43;;;;;;;;;;4994595;28;20191;-80
2022/10/12 08:57:27;;;;;;;4.30;3.83;;;;;;;;;;4994270;28;20266;-81
2022/10/12 08:59:53;;;;;;;4.23;3.77;;;;;;;;;;4994254;28;20652;-80
2022/10/12 09:02:22;;;;;;;5.83;3.77;;;;;;;;;;4993951;28;20654;-81
2022/10/12 09:04:53;;;;;;;4.87;3.50;;;;;;;;;;4994023;28;20179;-80
2022/10/12 09:07:29;;;;;;;5.63;3.70;;;;;;;;;;4994224;28;20677;-80
2022/10/12 09:10:14;;;;;;;4.57;3.60;;;;;;;;;;4993173;28;20180;-80
2022/10/12 09:12:43;;;;;;;6.83;4.33;;;;;;;;;;4993990;28;20203;-80
2022/10/12 09:15:18;;;;;;;4.80;3.57;;;;;;;;;;4993678;28;20180;-80
2022/10/12 09:17:56;;;;;;;5.83;3.97;;;;;;;;;;4993882;28;20183;-80
2022/10/12 09:20:30;;;;;;;6.23;3.73;;;;;;;;;;4993918;28;20168;-80
2022/10/12 09:23:19;;;;;;;7.30;3.93;;;;;;;;;;4994091;28;20179;-81
2022/10/12 09:25:46;;;;;;;4.43;3.50;;;;;;;;;;5019270;23;20681;-79
2022/10/12 09:28:20;;;;;;;5.67;4.00;;;;;;;;;;4993019;28;20264;-79
2022/10/12 09:30:55;;;;;;;4.10;3.57;;;;;;;;;;4992711;28;20188;-79
2022/10/12 09:33:27;;;;;;;5.70;3.43;;;;;;;;;;4992751;28;20224;-79
2022/10/12 09:35:55;;;;;;;5.93;3.83;;;;;;;;;;4992403;28;20198;-79
2022/10/12 09:38:23;;;;;;;4.87;3.67;;;;;;;;;;4992653;28;20167;-77
2022/10/12 09:40:49;;;;;;;6.43;3.60;;;;;;;;;;4974077;28;20182;-79
2022/10/12 09:43:15;;;;;;;6.93;4.07;;;;;;;;;;4992430;28;20191;-78
2022/10/12 09:45:41;;;;;;;5.83;3.43;;;;;;;;;;4992280;28;20211;-78
2022/10/12 09:48:07;;;;;;;4.97;3.70;;;;;;;;;;4976695;28;20187;-77
2022/10/12 09:50:38;;;;;;;5.60;3.80;;;;;;;;;;4991746;28;20194;-77
2022/10/12 09:53:11;;;;;;;5.40;4.20;;;;;;;;;;4988395;28;20191;-78
2022/10/12 09:55:37;;;;;;;6.13;3.70;;;;;;;;;;4988388;28;20210;-78
2022/10/12 09:58:03;;;;;;;7.43;4.07;;;;;;;;;;4990901;28;20180;-78
2022/10/12 10:00:33;;;;;;;6.23;3.60;;;;;;;;;;4989722;28;20184;-78
2022/10/12 10:03:00;;;;;;;5.07;3.70;;;;;;;;;;4993568;28;20184;-78
2022/10/12 10:05:26;;;;;;;5.20;3.90;;;;;;;;;;4992082;28;20226;-78
2022/10/12 10:07:52;;;;;;;6.43;4.57;;;;;;;;;;4987599;28;20181;-78
2022/10/12 10:10:21;;;;;;;5.77;3.80;;;;;;;;;;4992839;28;20279;-78
2022/10/12 10:12:52;;;;;;;4.40;3.80;;;;;;;;;;5011732;28;20297;-78
2022/10/12 10:15:37;;;;;;;4.23;3.23;;;;;;;;;;4977203;28;20172;-77
2022/10/12 10:18:05;;;;;;;5.30;3.33;;;;;;;;;;4993728;28;20160;-77
2022/10/12 10:20:41;;;;;;;3.37;3.00;;;;;;;;;;4992081;28;20182;-77
2022/10/12 10:23:07;;;;;;;5.10;3.50;;;;;;;;;;4993344;28;20207;-77
2022/10/12 10:25:34;;;;;;;5.80;3.43;;;;;;;;;;4976125;28;20232;-77
2022/10/12 10:28:29;;;;;;;8.00;3.73;;;;;;;;;;4992378;28;20175;-78
2022/10/12 10:31:01;;;;;;;4.00;3.10;;;;;;;;;;4979977;28;20216;-76
2022/10/12 10:33:28;;;;;;;4.67;3.20;;;;;;;;;;4992619;28;20249;-78
2022/10/12 10:35:57;;;;;;;4.97;3.47;;;;;;;;;;4992242;28;20195;-77
2022/10/12 10:38:23;;;;;;;4.97;3.50;;;;;;;;;;4992258;28;20176;-77
2022/10/12 10:40:54;;;;;;;5.47;3.30;;;;;;;;;;4976417;28;20184;-76
2022/10/12 10:43:24;;;;;;;6.07;3.10;;;;;;;;;;4992264;28;20653;-79
2022/10/12 10:45:51;;;;;;;5.07;3.40;;;;;;;;;;4992287;28;20249;-76
2022/10/12 10:48:22;;;;;;;6.23;3.60;;;;;;;;;;4992340;28;20663;-76
2022/10/12 10:50:53;;;;;;;6.43;3.80;;;;;;;;;;4991942;28;20273;-76
2022/10/12 10:53:21;;;;;;;8.57;4.13;;;;;;;;;;4992962;28;20524;-76
2022/10/12 10:55:50;;;;;;;6.60;4.90;;;;;;;;;;4975866;28;20204;-76
2022/10/12 10:58:36;;;;;;;7.13;4.23;;;;;;;;;;4991900;28;20176;-76
2022/10/12 11:01:12;;;;;;;5.17;4.07;;;;;;;;;;4992137;28;20211;-76
2022/10/12 11:03:45;;;;;;;7.63;4.33;;;;;;;;;;4992149;28;20221;-76
2022/10/12 11:06:17;;;;;;;5.10;4.23;;;;;;;;;;4991831;28;20203;-76
2022/10/12 11:08:44;;;;;;;7.67;4.73;;;;;;;;;;4991720;28;20179;-76
2022/10/12 11:11:14;;;;;;;6.87;5.03;;;;;;;;;;4975916;28;20264;-75
2022/10/12 11:13:40;;;;;;;6.97;5.10;;;;;;;;;;4975963;28;20191;-76
2022/10/12 11:16:10;;;;;;;9.07;5.80;;;;;;;;;;4991753;28;20196;-76
2022/10/12 11:18:38;;;;;;;10.10;5.70;;;;;;;;;;4991743;28;20207;-76
2022/10/12 11:21:08;;;;;;;10.50;7.20;;;;;;;;;;4991726;28;20187;-76
2022/10/12 11:23:53;;;;;;;13.23;6.57;;;;;;;;;;4992750;28;20176;-76
2022/10/12 11:26:25;;;;;;;9.93;7.63;;;;;;;;;;4991733;28;20222;-76
2022/10/12 11:28:53;;;;;;;11.47;8.10;;;;;;;;;;4991647;28;20192;-77
2022/10/12 11:31:38;;;;;;;10.90;8.00;;;;;;;;;;4991657;28;20661;-77
2022/10/12 11:37:14;;;;;;;11.17;7.43;;;;;;;;;;4996500;28;20198;-77
2022/10/12 11:39:43;;;;;;;11.43;8.33;;;;;;;;;;4995313;28;20641;-77
2022/10/12 11:42:12;;;;;;;11.87;8.33;;;;;;;;;;4979012;28;20646;-77
2022/10/12 11:44:40;;;;;;;13.90;8.53;;;;;;;;;;4995131;28;20179;-77
2022/10/12 11:47:09;;;;;;;10.83;7.70;;;;;;;;;;4979009;28;20208;-77
2022/10/12 11:49:56;;;;;;;10.23;7.37;;;;;;;;;;4995060;28;20183;-77
2022/10/12 11:52:24;;;;;;;10.83;7.47;;;;;;;;;;4994751;28;20231;-77
2022/10/12 11:55:01;;;;;;;9.77;6.77;;;;;;;;;;4995058;28;20176;-77
2022/10/12 11:57:29;;;;;;;11.40;7.10;;;;;;;;;;4996210;28;20222;-77
2022/10/12 11:59:58;;;;;;;8.63;6.53;;;;;;;;;;4994835;28;20234;-77
2022/10/12 12:02:38;;;;;;;11.60;6.83;;;;;;;;;;4978682;28;20180;-77
2022/10/12 12:05:05;;;;;;;7.50;5.80;;;;;;;;;;4994879;28;20176;-77
2022/10/12 12:07:40;;;;;;;9.93;6.33;;;;;;;;;;4979079;28;20255;-77
2022/10/12 12:10:25;;;;;;;9.07;6.10;;;;;;;;;;4995043;28;20182;-77
2022/10/12 12:13:11;;;;;;;7.68;5.50;;;;;;;;;;4995757;28;20212;-77
2022/10/12 12:15:57;;;;;;;7.70;5.90;;;;;;;;;;4994590;28;20207;-77
2022/10/12 12:18:32;;;;;;;12.70;6.00;;;;;;;;;;4995600;28;20180;-77
2022/10/12 12:21:00;;;;;;;10.73;6.47;;;;;;;;;;4994707;28;20186;-77
2022/10/12 12:23:27;;;;;;;9.63;6.60;;;;;;;;;;4994621;28;20214;-77
2022/10/12 12:26:23;;;;;;;9.57;6.00;;;;;;;;;;4995579;28;20566;-77
2022/10/12 12:28:50;;;;;;;10.07;5.13;;;;;;;;;;4982240;28;20233;-77
2022/10/12 12:31:16;;;;;;;8.43;5.93;;;;;;;;;;4994521;28;20291;-77
2022/10/12 12:39:54;;;;;;;11.77;5.53;;;;;;;;;;4995478;28;20162;-77
2022/10/12 12:42:22;;;;;;;7.28;4.90;;;;;;;;;;4995316;28;20306;-77
2022/10/12 12:44:48;;;;;;;9.63;4.88;;;;;;;;;;4977184;28;20187;-77
2022/10/12 12:47:16;;;;;;;6.07;4.65;;;;;;;;;;4977984;28;20306;-77
2022/10/12 12:49:47;;;;;;;7.95;4.95;;;;;;;;;;4995524;28;20197;-77
2022/10/12 12:52:31;;;;;;;9.63;4.93;;;;;;;;;;4977676;28;20204;-77
2022/10/12 12:55:15;;;;;;;8.45;4.43;;;;;;;;;;4993856;28;20669;-77
2022/10/12 12:57:41;;;;;;;5.13;4.35;;;;;;;;;;4993971;28;20176;-77
2022/10/12 13:00:07;;;;;;;5.10;4.50;;;;;;;;;;4993784;28;20187;-77
2022/10/12 13:02:43;;;;;;;7.38;3.83;;;;;;;;;;4993715;28;20175;-77
2022/10/12 13:05:15;;;;;;;6.03;3.90;;;;;;;;;;4993821;28;20262;-77
2022/10/12 13:07:41;;;;;;;7.05;4.13;;;;;;;;;;4993938;28;20183;-77
2022/10/12 13:10:07;;;;;;;6.93;4.40;;;;;;;;;;4993674;28;20183;-77
2022/10/12 13:12:39;;;;;;;6.75;4.15;;;;;;;;;;4993526;28;20207;-77
2022/10/12 13:15:21;;;;;;;6.93;4.70;;;;;;;;;;4993600;28;20561;-77
2022/10/12 13:17:46;;;;;;;7.07;4.67;;;;;;;;;;4993447;28;20176;-77
2022/10/12 13:20:17;;;;;;;9.10;4.60;;;;;;;;;;4993827;28;20202;-78
2022/10/12 13:22:44;;;;;;;9.23;4.55;;;;;;;;;;4974685;28;20200;-77
2022/10/12 13:25:29;;;;;;;8.07;4.83;;;;;;;;;;4975207;28;20180;-80
2022/10/12 13:27:56;;;;;;;7.72;4.30;;;;;;;;;;4993647;28;20179;-80
2022/10/12 13:30:22;;;;;;;8.23;4.30;;;;;;;;;;4994997;28;20186;-79
2022/10/12 13:32:53;;;;;;;7.13;3.90;;;;;;;;;;4995503;28;20196;-79
2022/10/12 13:35:30;;;;;;;9.10;4.30;;;;;;;;;;4994896;28;20253;-80
2022/10/12 13:38:00;;;;;;;7.13;4.10;;;;;;;;;;4993321;28;20180;-76
2022/10/12 13:40:28;;;;;;;8.27;4.30;;;;;;;;;;4994720;28;20175;-79
2022/10/12 13:42:54;;;;;;;7.00;4.53;;;;;;;;;;4994626;28;20244;-75
2022/10/12 13:45:20;;;;;;;6.73;4.40;;;;;;;;;;4977045;28;20184;-77
2022/10/12 13:47:46;;;;;;;6.70;4.10;;;;;;;;;;4977199;28;20180;-79
2022/10/12 13:50:17;;;;;;;8.27;4.50;;;;;;;;;;4993321;28;20566;-79
2022/10/12 13:52:51;;;;;;;7.60;4.20;;;;;;;;;;4992903;28;20294;-78
2022/10/12 13:55:17;;;;;;;7.93;4.10;;;;;;;;;;4992555;28;20175;-78
2022/10/12 13:57:48;;;;;;;7.97;4.13;;;;;;;;;;4993865;28;20274;-76
2022/10/12 14:00:17;;;;;;;6.53;4.63;;;;;;;;;;4993761;28;20194;-76
2022/10/12 14:02:53;;;;;;;8.27;4.83;;;;;;;;;;4993079;28;20186;-79
2022/10/12 14:05:20;;;;;;;5.70;4.13;;;;;;;;;;4993792;28;20634;-79
2022/10/12 14:07:46;;;;;;;5.57;4.30;;;;;;;;;;4977059;28;20186;-78
2022/10/12 14:10:18;;;;;;;9.57;4.73;;;;;;;;;;4977110;28;20278;-78
2022/10/12 14:12:49;;;;;;;7.23;4.23;;;;;;;;;;4992384;28;20246;-78
2022/10/12 14:15:15;;;;;;;6.47;4.97;;;;;;;;;;4976468;28;20182;-78
2022/10/12 14:17:43;;;;;;;9.23;4.80;;;;;;;;;;4992446;28;20259;-78
2022/10/12 14:20:28;;;;;;;8.00;4.87;;;;;;;;;;4992512;28;20214;-78
2022/10/12 14:22:55;;;;;;;8.20;4.43;;;;;;;;;;4992494;28;20525;-78
2022/10/12 14:25:22;;;;;;;9.60;4.83;;;;;;;;;;4976475;28;20199;-78
2022/10/12 14:28:02;;;;;;;6.63;4.80;;;;;;;;;;4993565;28;20163;-78
2022/10/12 14:30:29;;;;;;;10.00;5.17;;;;;;;;;;4992239;28;20178;-79
2022/10/12 14:33:08;;;;;;;8.03;5.10;;;;;;;;;;4992296;28;20274;-79
2022/10/12 14:35:34;;;;;;;7.43;4.80;;;;;;;;;;4992361;28;20195;-79
2022/10/12 14:38:20;;;;;;;7.87;4.83;;;;;;;;;;4976271;28;20215;-79
2022/10/12 14:40:47;;;;;;;7.97;4.40;;;;;;;;;;4992119;28;20180;-79
2022/10/12 14:43:13;;;;;;;8.13;4.63;;;;;;;;;;4992054;28;20172;-79
2022/10/12 14:45:39;;;;;;;7.53;4.47;;;;;;;;;;4992600;28;20269;-79
2022/10/12 14:48:09;;;;;;;7.93;5.27;;;;;;;;;;4976782;28;20184;-78
2022/10/12 14:50:35;;;;;;;7.53;4.90;;;;;;;;;;4993905;28;20380;-78
2022/10/12 14:53:03;;;;;;;10.13;4.77;;;;;;;;;;4976143;28;20561;-80
2022/10/12 14:55:30;;;;;;;9.40;4.87;;;;;;;;;;4992528;28;20187;-78
2022/10/12 14:57:56;;;;;;;6.50;5.03;;;;;;;;;;4976332;28;20180;-79
2022/10/12 15:00:33;;;;;;;6.43;4.60;;;;;;;;;;4976289;28;20179;-79
2022/10/12 15:03:00;;;;;;;7.77;4.70;;;;;;;;;;4992724;28;20230;-78